01:06
Airports
History
Links
Donate
Help keep this website running!
PayPal
Bitcoin
This page is community maintained. The information is intended for PC simulator navigation or reference.
Always use approved charts for navigation.
DH1
Huntsville Deerhurst Resort
Huntsville Deerhurst Resort (DH1)
Huntsville, Ontario, Canada
(U)
Lat/Lng:45° 21' 15" N / 79° 9' 5" W
45.354167 / -79.151389
Elevation:1029'ft / 314mMSL
ID / ICAO:DH1
Runways:1
Longest:(05-23) 933.4m / 3,062ft Asphalt
Distance To
Airport ID:
Airport Radio Frequencies
CTAF/UNICOM: 123.35
Nearby VORs <50NM
Nearby NDBs
Nearby WeatherUpdated 08-24-17 00:00 GMT
Nearby weather at CYQA, Muskoka located 27.2 nautical miles from DH1
Altimeter: 29.87
Visibility: 9.0 statute miles
Wind: 7 knots (290°)
Temp: 16°c 61°f
Humidity: 72.2%

METAR: CYQA 240000Z AUTO 29007G16KT 9SM BKN080 16/11 A2987 RMK SLP119 DENSITY ALT 1200FT

(Powered by phpweather)
Runway 05 / 23
Dimensions:933.4 x 18.3m 3062' x 60'ft
Surface:Asphalt
Runway 05 [A]Runway 23 [B]
Heading:037°TH 217°TH
Lat:
Lng:
45° 21' 3"N
79° 9' 18"W
45° 21' 27"N
79° 8' 52"W
User Notes and Comments
Google Map
Nearby Airports
4 Emsdale 16.6 NM
CNA4 NW 324°
4 Windermere 22.8 NM
CNW2 SW 234°
(U) Muskoka 27.2 NM
CYQA (WX) SSW 195°
(U) PARRY SOUND AREA MUNI 33.6 NM
CNK4 WSW 258°
(C) South River-Sundridge 33.7 NM
CPE6 NNW 343°
4 Trout Creek Chalet 44.5 NM
CTC1 NNW 344°
(U) Orillia Mara 52.2 NM
NE2 S 189°
VFR Chart
Flight Planning at SkyVector.com